Orbital elements of SL-12 R/B(2)
| Launched | 30 March 1988 |
| Flight ended | – |
| Launch site | Tyuratam Missile and Space Center, Kazakhstan (Also known as Baikonur Cosmodrome) |
| Owner | Commonwealth of Independent States (former USSR) |
| NORAD ID | 19020 |
| Date fetched |
Epoch osculation |
Inc. [°] |
Ecc. | RA asc node [hr] |
Arg Peri. [°] |
Mean anom [°] |
Mean motion [rev/day] |
Abs. mag |
| Date fetched |
Epoch osculation |
Inc. [°] |
Ecc. | RA asc node [hr] |
Arg Peri. [°] |
Mean anom [°] |
Mean motion [rev/day] |
Abs. mag |
| 2026 May 05 17:57 | 2026 May 05 08:02:13 | 12.7708 | 0.00194 | 22.0719 | 128.3556 | 242.5175 | 0.97785 | – |
| 2026 May 04 17:57 | 2026 Apr 30 05:02:47 | 12.7771 | 0.00195 | 22.0741 | 128.3362 | 242.5175 | 0.97785 | – |
| 2026 May 03 17:57 | 2026 Apr 30 05:02:47 | 12.7771 | 0.00195 | 22.0741 | 128.3362 | 242.5175 | 0.97785 | – |
| 2026 May 02 17:57 | 2026 Apr 30 05:02:47 | 12.7771 | 0.00195 | 22.0741 | 128.3362 | 242.5175 | 0.97785 | – |
| 2026 May 01 17:56 | 2026 Apr 30 05:02:47 | 12.7771 | 0.00195 | 22.0741 | 128.3362 | 242.5175 | 0.97785 | – |
| 2026 Apr 30 17:56 | 2026 Apr 30 05:02:47 | 12.7771 | 0.00195 | 22.0741 | 128.3362 | 242.5175 | 0.97785 | – |
| 2026 Apr 29 17:57 | 2026 Apr 24 02:08:29 | 12.7846 | 0.00195 | 22.0767 | 128.0561 | 242.5175 | 0.97785 | – |
| 2026 Apr 28 17:56 | 2026 Apr 24 02:08:29 | 12.7846 | 0.00195 | 22.0767 | 128.0561 | 242.5175 | 0.97785 | – |
| 2026 Apr 27 17:58 | 2026 Apr 24 02:08:29 | 12.7846 | 0.00195 | 22.0767 | 128.0561 | 242.5175 | 0.97785 | – |
| 2026 Apr 26 17:58 | 2026 Apr 24 02:08:29 | 12.7846 | 0.00195 | 22.0767 | 128.0561 | 242.5175 | 0.97785 | – |
| 2026 Apr 25 17:58 | 2026 Apr 24 02:08:29 | 12.7846 | 0.00195 | 22.0767 | 128.0561 | 242.5175 | 0.97785 | – |
| 2026 Apr 24 17:59 | 2026 Apr 24 02:08:29 | 12.7846 | 0.00195 | 22.0767 | 128.0561 | 242.5175 | 0.97785 | – |
| 2026 Apr 23 17:57 | 2026 Apr 19 11:06:43 | 12.7902 | 0.00194 | 22.0788 | 127.7517 | 242.5175 | 0.97785 | – |
| 2026 Apr 22 17:57 | 2026 Apr 19 11:06:43 | 12.7902 | 0.00194 | 22.0788 | 127.7517 | 242.5175 | 0.97785 | – |
| 2026 Apr 21 17:57 | 2026 Apr 19 11:06:43 | 12.7902 | 0.00194 | 22.0788 | 127.7517 | 242.5175 | 0.97785 | – |
| 2026 Apr 20 17:57 | 2026 Apr 19 11:06:43 | 12.7902 | 0.00194 | 22.0788 | 127.7517 | 242.5175 | 0.97785 | – |
| 2026 Apr 19 17:58 | 2026 Apr 19 11:06:43 | 12.7902 | 0.00194 | 22.0788 | 127.7517 | 242.5175 | 0.97785 | – |
| 2026 Apr 18 17:56 | 2026 Apr 12 18:32:25 | 12.7985 | 0.00192 | 22.0817 | 127.7055 | 242.5175 | 0.97785 | – |
| 2026 Apr 16 17:57 | 2026 Apr 12 18:32:25 | 12.7985 | 0.00192 | 22.0817 | 127.7055 | 242.5175 | 0.97785 | – |
| 2026 Apr 14 17:57 | 2026 Apr 12 18:32:25 | 12.7985 | 0.00192 | 22.0817 | 127.7055 | 242.5175 | 0.97785 | – |
| 2026 Apr 13 17:57 | 2026 Apr 12 18:32:25 | 12.7985 | 0.00192 | 22.0817 | 127.7055 | 242.5175 | 0.97785 | – |
| 2026 Apr 12 17:57 | 2026 Apr 08 05:12:43 | 12.8041 | 0.00192 | 22.0837 | 127.7654 | 242.5175 | 0.97785 | – |
| 2026 Apr 11 17:57 | 2026 Apr 08 05:12:43 | 12.8041 | 0.00192 | 22.0837 | 127.7654 | 242.5175 | 0.97785 | – |
| 2026 Apr 10 17:58 | 2026 Apr 08 05:12:43 | 12.8041 | 0.00192 | 22.0837 | 127.7654 | 242.5175 | 0.97785 | – |
| 2026 Apr 09 18:01 | 2026 Apr 08 05:12:43 | 12.8041 | 0.00192 | 22.0837 | 127.7654 | 242.5175 | 0.97785 | – |
| 2026 Apr 08 17:57 | 2026 Apr 08 05:12:43 | 12.8041 | 0.00192 | 22.0837 | 127.7654 | 242.5175 | 0.97785 | – |